createdAt,value
2022-12-13T12:56:03.419Z,6.78
2022-12-13T13:47:21.036Z,7.90
2022-12-13T18:03:23.333Z,13.77
2022-12-13T18:08:34.793Z,12.82
2022-12-13T18:13:42.383Z,13.48
2022-12-13T18:18:54.852Z,15.18
2022-12-13T18:24:23.702Z,15.40
2022-12-13T18:29:26.533Z,15.18
2022-12-13T18:34:36.913Z,16.38
2022-12-13T18:39:39.647Z,17.42
2022-12-13T18:44:42.154Z,16.85
2022-12-13T18:49:58.117Z,16.80
2022-12-13T18:55:01.967Z,16.52
2022-12-13T19:00:06.119Z,15.73
2022-12-13T19:05:11.888Z,16.95
2022-12-13T19:10:14.686Z,17.67
2022-12-13T19:15:21.927Z,16.60
2022-12-13T19:20:29.255Z,17.30
2022-12-13T19:25:31.756Z,15.15
2022-12-13T19:30:38.343Z,17.92
2022-12-13T19:35:43.300Z,17.88
2022-12-13T19:40:48.957Z,18.52
2022-12-13T19:45:51.937Z,19.65
2022-12-13T19:51:07.862Z,18.30
2022-12-13T19:56:13.412Z,18.67
2022-12-13T20:01:16.780Z,17.00
2022-12-13T20:06:22.709Z,17.17
2022-12-13T20:11:28.577Z,20.02
2022-12-13T20:16:34.248Z,21.00
2022-12-13T20:21:36.927Z,18.80
2022-12-13T20:26:39.196Z,19.50
2022-12-13T20:31:48.659Z,20.35
2022-12-13T20:36:51.209Z,18.98
2022-12-13T20:42:06.120Z,19.45
2022-12-13T20:47:08.724Z,18.20
2022-12-13T20:52:11.150Z,19.23
2022-12-13T20:57:13.866Z,19.10
2022-12-13T21:02:16.926Z,21.00
2022-12-13T21:07:39.445Z,20.05
2022-12-13T21:12:47.932Z,17.45
2022-12-13T21:17:50.107Z,18.05
2022-12-13T21:22:54.030Z,18.23
2022-12-13T21:27:56.860Z,18.67
2022-12-13T21:33:02.227Z,18.30
2022-12-13T21:38:05.577Z,18.65
2022-12-13T21:43:08.283Z,19.30
2022-12-13T21:48:11.285Z,17.15
2022-12-13T21:53:14.172Z,17.90
2022-12-13T21:58:36.824Z,18.52
2022-12-13T22:03:38.953Z,18.02
2022-12-13T22:08:41.164Z,19.73
2022-12-13T22:13:43.366Z,16.02
2022-12-13T22:18:54.453Z,17.25
2022-12-13T22:24:12.341Z,17.42
2022-12-13T22:34:21.027Z,16.65
2022-12-13T22:39:25.995Z,16.83
2022-12-13T22:44:28.365Z,19.10
2022-12-13T22:49:35.379Z,16.15
2022-12-13T22:54:37.700Z,16.58
2022-12-13T22:59:40.162Z,15.65
2022-12-13T23:04:42.521Z,17.27
2022-12-13T23:09:44.672Z,15.40
2022-12-13T23:14:47.020Z,14.48
2022-12-13T23:19:53.413Z,14.43
2022-12-13T23:24:55.986Z,14.98
2022-12-13T23:29:58.371Z,14.05
2022-12-13T23:35:01.991Z,14.25
2022-12-13T23:40:05.147Z,14.27
2022-12-13T23:45:07.964Z,11.48
2022-12-13T23:50:12.881Z,12.65
2022-12-13T23:55:15.976Z,11.27
